sensor_id;sensor_type;location;lat;lon;timestamp;P1;durP1;ratioP1;P2;durP2;ratioP2
71108;SDS011;59614;51.012;-1.648;2023-03-01T00:01:21;8.45;;;3.60;;
71108;SDS011;59614;51.012;-1.648;2023-03-01T00:03:49;6.22;;;3.00;;
71108;SDS011;59614;51.012;-1.648;2023-03-01T00:06:15;6.70;;;3.67;;
71108;SDS011;59614;51.012;-1.648;2023-03-01T00:08:41;5.60;;;3.53;;
71108;SDS011;59614;51.012;-1.648;2023-03-01T00:11:09;6.25;;;3.13;;
71108;SDS011;59614;51.012;-1.648;2023-03-01T00:13:37;5.30;;;3.38;;
71108;SDS011;59614;51.012;-1.648;2023-03-01T00:16:07;5.20;;;3.17;;
71108;SDS011;59614;51.012;-1.648;2023-03-01T00:18:34;6.00;;;3.13;;
71108;SDS011;59614;51.012;-1.648;2023-03-01T00:21:00;3.92;;;2.63;;
71108;SDS011;59614;51.012;-1.648;2023-03-01T00:23:26;4.45;;;2.70;;
71108;SDS011;59614;51.012;-1.648;2023-03-01T00:25:51;6.35;;;2.88;;
71108;SDS011;59614;51.012;-1.648;2023-03-01T00:28:17;4.53;;;3.08;;
71108;SDS011;59614;51.012;-1.648;2023-03-01T00:30:43;5.22;;;3.40;;
71108;SDS011;59614;51.012;-1.648;2023-03-01T00:33:08;6.03;;;2.83;;
71108;SDS011;59614;51.012;-1.648;2023-03-01T00:35:34;4.65;;;2.92;;
71108;SDS011;59614;51.012;-1.648;2023-03-01T00:38:00;4.18;;;2.90;;
71108;SDS011;59614;51.012;-1.648;2023-03-01T00:40:26;7.90;;;2.90;;
71108;SDS011;59614;51.012;-1.648;2023-03-01T00:42:52;6.15;;;3.13;;
71108;SDS011;59614;51.012;-1.648;2023-03-01T00:45:18;5.35;;;3.20;;
71108;SDS011;59614;51.012;-1.648;2023-03-01T00:47:43;5.45;;;3.20;;
71108;SDS011;59614;51.012;-1.648;2023-03-01T00:50:09;6.32;;;3.45;;
71108;SDS011;59614;51.012;-1.648;2023-03-01T00:52:36;5.63;;;3.37;;
71108;SDS011;59614;51.012;-1.648;2023-03-01T00:55:02;5.95;;;3.45;;
71108;SDS011;59614;51.012;-1.648;2023-03-01T00:57:28;6.53;;;3.00;;
71108;SDS011;59614;51.012;-1.648;2023-03-01T00:59:54;6.05;;;3.20;;
71108;SDS011;59614;51.012;-1.648;2023-03-01T01:02:19;6.05;;;3.10;;
71108;SDS011;59614;51.012;-1.648;2023-03-01T01:04:45;9.07;;;3.92;;
71108;SDS011;59614;51.012;-1.648;2023-03-01T01:07:11;7.72;;;3.42;;
71108;SDS011;59614;51.012;-1.648;2023-03-01T01:09:37;6.65;;;3.50;;
71108;SDS011;59614;51.012;-1.648;2023-03-01T01:12:03;5.15;;;3.00;;
71108;SDS011;59614;51.012;-1.648;2023-03-01T01:14:29;8.65;;;3.83;;
71108;SDS011;59614;51.012;-1.648;2023-03-01T01:16:54;8.27;;;5.00;;
71108;SDS011;59614;51.012;-1.648;2023-03-01T01:19:20;10.63;;;8.05;;
71108;SDS011;59614;51.012;-1.648;2023-03-01T01:21:46;12.02;;;8.27;;
71108;SDS011;59614;51.012;-1.648;2023-03-01T01:24:13;14.52;;;8.60;;
71108;SDS011;59614;51.012;-1.648;2023-03-01T01:26:39;11.73;;;8.70;;
71108;SDS011;59614;51.012;-1.648;2023-03-01T01:29:05;15.77;;;8.70;;
71108;SDS011;59614;51.012;-1.648;2023-03-01T01:31:31;12.43;;;8.80;;
71108;SDS011;59614;51.012;-1.648;2023-03-01T01:33:58;12.05;;;8.82;;
71108;SDS011;59614;51.012;-1.648;2023-03-01T01:36:25;17.60;;;8.68;;
71108;SDS011;59614;51.012;-1.648;2023-03-01T01:38:51;14.05;;;9.15;;
71108;SDS011;59614;51.012;-1.648;2023-03-01T01:41:17;14.45;;;8.73;;
71108;SDS011;59614;51.012;-1.648;2023-03-01T01:43:45;14.00;;;8.52;;
71108;SDS011;59614;51.012;-1.648;2023-03-01T01:46:15;12.73;;;8.50;;
71108;SDS011;59614;51.012;-1.648;2023-03-01T01:49:02;11.05;;;7.85;;
71108;SDS011;59614;51.012;-1.648;2023-03-01T01:51:33;12.07;;;7.53;;
71108;SDS011;59614;51.012;-1.648;2023-03-01T01:54:08;10.23;;;6.25;;
71108;SDS011;59614;51.012;-1.648;2023-03-01T01:56:38;7.68;;;4.82;;
71108;SDS011;59614;51.012;-1.648;2023-03-01T01:59:08;8.50;;;4.70;;
71108;SDS011;59614;51.012;-1.648;2023-03-01T02:01:34;7.45;;;4.40;;
71108;SDS011;59614;51.012;-1.648;2023-03-01T02:04:00;8.50;;;4.15;;
71108;SDS011;59614;51.012;-1.648;2023-03-01T02:06:27;7.70;;;4.03;;
71108;SDS011;59614;51.012;-1.648;2023-03-01T02:08:57;8.68;;;3.50;;
71108;SDS011;59614;51.012;-1.648;2023-03-01T02:11:27;7.80;;;4.40;;
71108;SDS011;59614;51.012;-1.648;2023-03-01T02:13:54;7.00;;;4.63;;
71108;SDS011;59614;51.012;-1.648;2023-03-01T02:16:20;6.63;;;3.80;;
71108;SDS011;59614;51.012;-1.648;2023-03-01T02:18:45;8.43;;;6.68;;
71108;SDS011;59614;51.012;-1.648;2023-03-01T02:24:39;11.85;;;7.82;;
71108;SDS011;59614;51.012;-1.648;2023-03-01T02:27:37;14.35;;;7.95;;
71108;SDS011;59614;51.012;-1.648;2023-03-01T02:30:10;13.70;;;8.82;;
71108;SDS011;59614;51.012;-1.648;2023-03-01T02:32:38;12.48;;;8.57;;
71108;SDS011;59614;51.012;-1.648;2023-03-01T02:35:07;13.63;;;8.98;;
71108;SDS011;59614;51.012;-1.648;2023-03-01T02:37:35;13.48;;;9.05;;
71108;SDS011;59614;51.012;-1.648;2023-03-01T02:40:02;13.02;;;8.80;;
71108;SDS011;59614;51.012;-1.648;2023-03-01T02:42:31;12.27;;;8.73;;
71108;SDS011;59614;51.012;-1.648;2023-03-01T02:45:02;12.13;;;8.88;;
71108;SDS011;59614;51.012;-1.648;2023-03-01T02:47:28;13.30;;;8.73;;
71108;SDS011;59614;51.012;-1.648;2023-03-01T02:49:53;15.65;;;9.43;;
71108;SDS011;59614;51.012;-1.648;2023-03-01T02:57:25;7.90;;;4.97;;
71108;SDS011;59614;51.012;-1.648;2023-03-01T02:59:54;9.40;;;4.05;;
71108;SDS011;59614;51.012;-1.648;2023-03-01T03:05:11;7.03;;;4.07;;
71108;SDS011;59614;51.012;-1.648;2023-03-01T03:07:40;7.10;;;5.03;;
71108;SDS011;59614;51.012;-1.648;2023-03-01T03:10:09;7.60;;;5.80;;
71108;SDS011;59614;51.012;-1.648;2023-03-01T03:12:37;8.25;;;4.55;;
71108;SDS011;59614;51.012;-1.648;2023-03-01T03:15:04;6.97;;;4.50;;
71108;SDS011;59614;51.012;-1.648;2023-03-01T03:17:34;8.38;;;4.70;;
71108;SDS011;59614;51.012;-1.648;2023-03-01T03:20:04;6.78;;;5.00;;
71108;SDS011;59614;51.012;-1.648;2023-03-01T03:22:31;8.13;;;5.20;;
71108;SDS011;59614;51.012;-1.648;2023-03-01T03:24:59;9.43;;;4.70;;
71108;SDS011;59614;51.012;-1.648;2023-03-01T03:27:25;6.72;;;4.45;;
71108;SDS011;59614;51.012;-1.648;2023-03-01T03:29:50;7.70;;;4.28;;
71108;SDS011;59614;51.012;-1.648;2023-03-01T03:32:15;7.25;;;3.90;;
71108;SDS011;59614;51.012;-1.648;2023-03-01T03:34:41;6.88;;;4.50;;
71108;SDS011;59614;51.012;-1.648;2023-03-01T03:37:06;7.10;;;4.20;;
71108;SDS011;59614;51.012;-1.648;2023-03-01T03:39:52;7.85;;;4.53;;
71108;SDS011;59614;51.012;-1.648;2023-03-01T03:42:20;7.18;;;4.60;;
71108;SDS011;59614;51.012;-1.648;2023-03-01T03:44:47;6.55;;;4.40;;
71108;SDS011;59614;51.012;-1.648;2023-03-01T03:47:12;6.82;;;4.32;;
71108;SDS011;59614;51.012;-1.648;2023-03-01T03:49:38;6.50;;;4.15;;
71108;SDS011;59614;51.012;-1.648;2023-03-01T03:52:03;7.50;;;4.32;;
71108;SDS011;59614;51.012;-1.648;2023-03-01T03:54:29;5.47;;;4.38;;
71108;SDS011;59614;51.012;-1.648;2023-03-01T03:56:54;5.35;;;3.72;;
71108;SDS011;59614;51.012;-1.648;2023-03-01T03:59:19;5.85;;;3.90;;
71108;SDS011;59614;51.012;-1.648;2023-03-01T04:01:45;6.25;;;4.03;;
71108;SDS011;59614;51.012;-1.648;2023-03-01T04:04:10;5.43;;;3.95;;
71108;SDS011;59614;51.012;-1.648;2023-03-01T04:06:36;5.25;;;3.75;;
71108;SDS011;59614;51.012;-1.648;2023-03-01T04:09:01;6.45;;;4.00;;
71108;SDS011;59614;51.012;-1.648;2023-03-01T04:11:27;6.10;;;3.72;;
71108;SDS011;59614;51.012;-1.648;2023-03-01T04:13:56;5.97;;;3.70;;
71108;SDS011;59614;51.012;-1.648;2023-03-01T04:16:22;5.70;;;3.97;;
71108;SDS011;59614;51.012;-1.648;2023-03-01T04:18:48;4.85;;;3.38;;
71108;SDS011;59614;51.012;-1.648;2023-03-01T04:21:14;5.10;;;3.60;;
71108;SDS011;59614;51.012;-1.648;2023-03-01T04:23:39;5.82;;;3.63;;
71108;SDS011;59614;51.012;-1.648;2023-03-01T04:26:06;4.95;;;3.47;;
71108;SDS011;59614;51.012;-1.648;2023-03-01T04:28:32;8.05;;;3.75;;
71108;SDS011;59614;51.012;-1.648;2023-03-01T04:31:07;10.10;;;4.00;;
71108;SDS011;59614;51.012;-1.648;2023-03-01T04:33:41;5.38;;;3.22;;
71108;SDS011;59614;51.012;-1.648;2023-03-01T04:36:12;6.53;;;3.35;;
71108;SDS011;59614;51.012;-1.648;2023-03-01T04:38:39;4.78;;;3.28;;
71108;SDS011;59614;51.012;-1.648;2023-03-01T04:41:06;6.90;;;3.33;;
71108;SDS011;59614;51.012;-1.648;2023-03-01T04:43:34;5.75;;;3.67;;
71108;SDS011;59614;51.012;-1.648;2023-03-01T04:46:04;7.93;;;3.40;;
71108;SDS011;59614;51.012;-1.648;2023-03-01T04:48:33;8.15;;;3.60;;
71108;SDS011;59614;51.012;-1.648;2023-03-01T04:50:59;6.22;;;3.75;;
71108;SDS011;59614;51.012;-1.648;2023-03-01T04:53:25;4.93;;;3.53;;
71108;SDS011;59614;51.012;-1.648;2023-03-01T04:55:51;5.88;;;3.80;;
71108;SDS011;59614;51.012;-1.648;2023-03-01T04:58:18;5.95;;;3.78;;
71108;SDS011;59614;51.012;-1.648;2023-03-01T05:00:43;5.20;;;3.85;;
71108;SDS011;59614;51.012;-1.648;2023-03-01T05:03:09;4.70;;;3.35;;
71108;SDS011;59614;51.012;-1.648;2023-03-01T05:05:36;8.50;;;3.50;;
71108;SDS011;59614;51.012;-1.648;2023-03-01T05:08:04;5.57;;;3.50;;
71108;SDS011;59614;51.012;-1.648;2023-03-01T05:10:32;5.22;;;3.38;;
71108;SDS011;59614;51.012;-1.648;2023-03-01T05:13:00;5.43;;;3.20;;
71108;SDS011;59614;51.012;-1.648;2023-03-01T05:15:27;6.00;;;3.67;;
71108;SDS011;59614;51.012;-1.648;2023-03-01T05:17:54;7.10;;;3.10;;
71108;SDS011;59614;51.012;-1.648;2023-03-01T05:20:23;5.40;;;3.97;;
71108;SDS011;59614;51.012;-1.648;2023-03-01T05:22:49;5.18;;;3.33;;
71108;SDS011;59614;51.012;-1.648;2023-03-01T05:25:15;7.38;;;3.55;;
71108;SDS011;59614;51.012;-1.648;2023-03-01T05:27:41;6.90;;;3.92;;
71108;SDS011;59614;51.012;-1.648;2023-03-01T05:30:07;6.53;;;3.70;;
71108;SDS011;59614;51.012;-1.648;2023-03-01T05:32:46;5.20;;;3.65;;
71108;SDS011;59614;51.012;-1.648;2023-03-01T05:35:14;5.97;;;3.60;;
71108;SDS011;59614;51.012;-1.648;2023-03-01T05:37:47;5.30;;;3.83;;
71108;SDS011;59614;51.012;-1.648;2023-03-01T05:40:23;6.35;;;3.83;;
71108;SDS011;59614;51.012;-1.648;2023-03-01T05:42:53;4.65;;;3.50;;
71108;SDS011;59614;51.012;-1.648;2023-03-01T05:45:20;6.10;;;3.63;;
71108;SDS011;59614;51.012;-1.648;2023-03-01T05:47:47;7.15;;;4.15;;
71108;SDS011;59614;51.012;-1.648;2023-03-01T05:50:15;6.03;;;3.95;;
71108;SDS011;59614;51.012;-1.648;2023-03-01T05:52:46;5.93;;;3.80;;
71108;SDS011;59614;51.012;-1.648;2023-03-01T05:57:39;6.35;;;3.75;;
71108;SDS011;59614;51.012;-1.648;2023-03-01T06:00:05;6.80;;;3.80;;
71108;SDS011;59614;51.012;-1.648;2023-03-01T06:02:31;6.68;;;3.60;;
71108;SDS011;59614;51.012;-1.648;2023-03-01T06:04:57;6.25;;;3.75;;
71108;SDS011;59614;51.012;-1.648;2023-03-01T06:07:23;6.00;;;3.67;;
71108;SDS011;59614;51.012;-1.648;2023-03-01T06:09:48;5.35;;;3.55;;
71108;SDS011;59614;51.012;-1.648;2023-03-01T06:12:14;5.63;;;3.58;;
71108;SDS011;59614;51.012;-1.648;2023-03-01T06:14:39;6.22;;;3.78;;
71108;SDS011;59614;51.012;-1.648;2023-03-01T06:17:05;6.22;;;4.13;;
71108;SDS011;59614;51.012;-1.648;2023-03-01T06:19:30;5.38;;;3.70;;
71108;SDS011;59614;51.012;-1.648;2023-03-01T06:21:55;6.07;;;3.67;;
71108;SDS011;59614;51.012;-1.648;2023-03-01T06:24:21;5.75;;;4.00;;
71108;SDS011;59614;51.012;-1.648;2023-03-01T06:26:46;7.30;;;4.13;;
71108;SDS011;59614;51.012;-1.648;2023-03-01T06:29:12;6.32;;;3.95;;
71108;SDS011;59614;51.012;-1.648;2023-03-01T06:31:37;6.07;;;3.90;;
71108;SDS011;59614;51.012;-1.648;2023-03-01T06:34:02;6.07;;;4.05;;
71108;SDS011;59614;51.012;-1.648;2023-03-01T06:36:28;6.50;;;3.78;;
71108;SDS011;59614;51.012;-1.648;2023-03-01T06:38:53;7.07;;;4.10;;
71108;SDS011;59614;51.012;-1.648;2023-03-01T06:41:19;5.85;;;3.80;;
71108;SDS011;59614;51.012;-1.648;2023-03-01T06:43:44;6.30;;;3.97;;
71108;SDS011;59614;51.012;-1.648;2023-03-01T06:46:09;5.88;;;3.72;;
71108;SDS011;59614;51.012;-1.648;2023-03-01T06:48:35;6.07;;;3.55;;
71108;SDS011;59614;51.012;-1.648;2023-03-01T06:51:00;7.05;;;3.88;;
71108;SDS011;59614;51.012;-1.648;2023-03-01T06:53:27;6.25;;;4.22;;
71108;SDS011;59614;51.012;-1.648;2023-03-01T06:55:56;8.07;;;4.38;;
71108;SDS011;59614;51.012;-1.648;2023-03-01T06:58:22;7.97;;;4.28;;
71108;SDS011;59614;51.012;-1.648;2023-03-01T07:00:48;7.47;;;4.70;;
71108;SDS011;59614;51.012;-1.648;2023-03-01T07:03:13;7.38;;;4.40;;
71108;SDS011;59614;51.012;-1.648;2023-03-01T07:05:38;7.13;;;4.38;;
71108;SDS011;59614;51.012;-1.648;2023-03-01T07:08:04;10.45;;;4.47;;
71108;SDS011;59614;51.012;-1.648;2023-03-01T07:10:30;7.60;;;4.13;;
71108;SDS011;59614;51.012;-1.648;2023-03-01T07:12:58;7.80;;;4.53;;
71108;SDS011;59614;51.012;-1.648;2023-03-01T07:15:25;8.32;;;5.32;;
71108;SDS011;59614;51.012;-1.648;2023-03-01T07:17:51;11.52;;;6.22;;
71108;SDS011;59614;51.012;-1.648;2023-03-01T07:20:17;14.00;;;4.93;;
71108;SDS011;59614;51.012;-1.648;2023-03-01T07:22:43;10.82;;;6.45;;
71108;SDS011;59614;51.012;-1.648;2023-03-01T07:25:09;9.52;;;5.90;;
71108;SDS011;59614;51.012;-1.648;2023-03-01T07:27:35;8.88;;;5.63;;
71108;SDS011;59614;51.012;-1.648;2023-03-01T07:30:01;9.48;;;5.10;;
71108;SDS011;59614;51.012;-1.648;2023-03-01T07:32:27;6.75;;;3.78;;
71108;SDS011;59614;51.012;-1.648;2023-03-01T07:34:52;7.82;;;4.05;;
71108;SDS011;59614;51.012;-1.648;2023-03-01T07:37:18;7.47;;;4.47;;
71108;SDS011;59614;51.012;-1.648;2023-03-01T07:39:43;8.25;;;4.60;;
71108;SDS011;59614;51.012;-1.648;2023-03-01T07:42:08;6.10;;;3.95;;
71108;SDS011;59614;51.012;-1.648;2023-03-01T07:44:34;7.97;;;4.13;;
71108;SDS011;59614;51.012;-1.648;2023-03-01T07:46:59;7.65;;;4.10;;
71108;SDS011;59614;51.012;-1.648;2023-03-01T07:49:25;8.93;;;3.42;;
71108;SDS011;59614;51.012;-1.648;2023-03-01T07:51:52;7.45;;;3.30;;
71108;SDS011;59614;51.012;-1.648;2023-03-01T07:54:17;6.72;;;3.60;;
71108;SDS011;59614;51.012;-1.648;2023-03-01T07:56:43;4.20;;;2.83;;
71108;SDS011;59614;51.012;-1.648;2023-03-01T07:59:08;5.65;;;3.42;;
71108;SDS011;59614;51.012;-1.648;2023-03-01T08:01:34;6.65;;;3.10;;
71108;SDS011;59614;51.012;-1.648;2023-03-01T08:04:00;6.38;;;3.38;;
71108;SDS011;59614;51.012;-1.648;2023-03-01T08:06:26;6.70;;;3.42;;
71108;SDS011;59614;51.012;-1.648;2023-03-01T08:08:52;7.25;;;3.25;;
71108;SDS011;59614;51.012;-1.648;2023-03-01T08:11:20;7.90;;;3.22;;
71108;SDS011;59614;51.012;-1.648;2023-03-01T08:13:47;8.52;;;3.35;;
71108;SDS011;59614;51.012;-1.648;2023-03-01T08:16:14;5.72;;;3.22;;
71108;SDS011;59614;51.012;-1.648;2023-03-01T08:18:40;7.80;;;3.30;;
71108;SDS011;59614;51.012;-1.648;2023-03-01T08:21:06;8.18;;;3.35;;
71108;SDS011;59614;51.012;-1.648;2023-03-01T08:23:36;10.60;;;3.35;;
71108;SDS011;59614;51.012;-1.648;2023-03-01T08:26:06;5.25;;;3.40;;
71108;SDS011;59614;51.012;-1.648;2023-03-01T08:28:40;3.95;;;2.50;;
71108;SDS011;59614;51.012;-1.648;2023-03-01T08:31:16;5.78;;;3.05;;
71108;SDS011;59614;51.012;-1.648;2023-03-01T08:33:44;8.45;;;4.10;;
71108;SDS011;59614;51.012;-1.648;2023-03-01T08:36:15;4.72;;;2.53;;
71108;SDS011;59614;51.012;-1.648;2023-03-01T08:38:41;4.57;;;2.75;;
71108;SDS011;59614;51.012;-1.648;2023-03-01T08:41:07;7.45;;;3.05;;
71108;SDS011;59614;51.012;-1.648;2023-03-01T08:43:32;8.02;;;3.30;;
71108;SDS011;59614;51.012;-1.648;2023-03-01T08:45:58;9.18;;;2.80;;
71108;SDS011;59614;51.012;-1.648;2023-03-01T08:48:23;7.68;;;3.20;;
71108;SDS011;59614;51.012;-1.648;2023-03-01T08:50:49;6.13;;;2.85;;
71108;SDS011;59614;51.012;-1.648;2023-03-01T08:53:14;7.10;;;2.60;;
71108;SDS011;59614;51.012;-1.648;2023-03-01T08:55:40;6.25;;;3.20;;
71108;SDS011;59614;51.012;-1.648;2023-03-01T08:58:05;7.13;;;3.00;;
71108;SDS011;59614;51.012;-1.648;2023-03-01T09:00:30;4.80;;;3.17;;
71108;SDS011;59614;51.012;-1.648;2023-03-01T09:02:59;7.53;;;3.70;;
71108;SDS011;59614;51.012;-1.648;2023-03-01T09:05:25;9.00;;;2.80;;
71108;SDS011;59614;51.012;-1.648;2023-03-01T09:07:50;9.15;;;2.72;;
71108;SDS011;59614;51.012;-1.648;2023-03-01T09:10:15;4.68;;;2.67;;
71108;SDS011;59614;51.012;-1.648;2023-03-01T09:12:41;4.20;;;2.63;;
71108;SDS011;59614;51.012;-1.648;2023-03-01T09:15:06;5.18;;;2.70;;
71108;SDS011;59614;51.012;-1.648;2023-03-01T09:17:32;7.88;;;2.60;;
71108;SDS011;59614;51.012;-1.648;2023-03-01T09:19:58;6.65;;;2.40;;
71108;SDS011;59614;51.012;-1.648;2023-03-01T09:22:24;5.47;;;2.40;;
71108;SDS011;59614;51.012;-1.648;2023-03-01T09:24:50;5.00;;;2.40;;
71108;SDS011;59614;51.012;-1.648;2023-03-01T09:27:15;4.55;;;2.58;;
71108;SDS011;59614;51.012;-1.648;2023-03-01T09:29:43;4.03;;;2.50;;
71108;SDS011;59614;51.012;-1.648;2023-03-01T09:32:09;4.03;;;2.42;;
71108;SDS011;59614;51.012;-1.648;2023-03-01T09:34:34;5.95;;;2.60;;
71108;SDS011;59614;51.012;-1.648;2023-03-01T09:37:20;4.40;;;2.33;;
71108;SDS011;59614;51.012;-1.648;2023-03-01T09:39:45;5.20;;;2.67;;
71108;SDS011;59614;51.012;-1.648;2023-03-01T09:42:11;8.05;;;3.25;;
71108;SDS011;59614;51.012;-1.648;2023-03-01T09:47:19;3.80;;;2.38;;
71108;SDS011;59614;51.012;-1.648;2023-03-01T09:49:48;6.53;;;2.70;;
71108;SDS011;59614;51.012;-1.648;2023-03-01T09:54:54;4.35;;;2.38;;
71108;SDS011;59614;51.012;-1.648;2023-03-01T09:57:26;4.07;;;2.45;;
71108;SDS011;59614;51.012;-1.648;2023-03-01T10:03:02;4.57;;;2.53;;
71108;SDS011;59614;51.012;-1.648;2023-03-01T10:06:08;5.05;;;2.50;;
71108;SDS011;59614;51.012;-1.648;2023-03-01T10:08:42;4.85;;;2.50;;
71108;SDS011;59614;51.012;-1.648;2023-03-01T10:11:21;2.88;;;1.88;;
71108;SDS011;59614;51.012;-1.648;2023-03-01T10:17:06;3.40;;;2.22;;
71108;SDS011;59614;51.012;-1.648;2023-03-01T10:22:16;4.63;;;1.75;;
71108;SDS011;59614;51.012;-1.648;2023-03-01T10:24:43;6.13;;;1.85;;
71108;SDS011;59614;51.012;-1.648;2023-03-01T10:27:13;4.10;;;2.20;;
71108;SDS011;59614;51.012;-1.648;2023-03-01T10:32:25;2.55;;;1.73;;
71108;SDS011;59614;51.012;-1.648;2023-03-01T10:34:51;3.00;;;1.83;;
71108;SDS011;59614;51.012;-1.648;2023-03-01T10:37:17;3.17;;;1.88;;
71108;SDS011;59614;51.012;-1.648;2023-03-01T10:40:05;19.08;;;2.58;;
71108;SDS011;59614;51.012;-1.648;2023-03-01T10:42:39;2.15;;;1.60;;
71108;SDS011;59614;51.012;-1.648;2023-03-01T10:47:40;2.88;;;1.80;;
71108;SDS011;59614;51.012;-1.648;2023-03-01T10:50:08;2.15;;;1.48;;
71108;SDS011;59614;51.012;-1.648;2023-03-01T10:52:44;3.13;;;1.88;;
71108;SDS011;59614;51.012;-1.648;2023-03-01T10:55:35;2.35;;;1.80;;
71108;SDS011;59614;51.012;-1.648;2023-03-01T10:58:15;1.35;;;1.23;;
71108;SDS011;59614;51.012;-1.648;2023-03-01T11:03:21;2.25;;;1.00;;
71108;SDS011;59614;51.012;-1.648;2023-03-01T11:05:52;11.02;;;2.00;;
71108;SDS011;59614;51.012;-1.648;2023-03-01T11:13:34;1.67;;;1.35;;
71108;SDS011;59614;51.012;-1.648;2023-03-01T11:16:01;2.67;;;1.63;;
71108;SDS011;59614;51.012;-1.648;2023-03-01T11:18:29;2.92;;;1.55;;
71108;SDS011;59614;51.012;-1.648;2023-03-01T11:20:55;4.18;;;1.95;;
71108;SDS011;59614;51.012;-1.648;2023-03-01T11:23:24;1.77;;;1.30;;
71108;SDS011;59614;51.012;-1.648;2023-03-01T11:26:01;2.70;;;1.77;;
71108;SDS011;59614;51.012;-1.648;2023-03-01T11:28:30;5.25;;;2.10;;
71108;SDS011;59614;51.012;-1.648;2023-03-01T11:31:02;3.00;;;1.70;;
71108;SDS011;59614;51.012;-1.648;2023-03-01T11:38:40;3.10;;;1.88;;
71108;SDS011;59614;51.012;-1.648;2023-03-01T11:44:13;3.15;;;1.90;;
71108;SDS011;59614;51.012;-1.648;2023-03-01T11:46:59;5.47;;;2.17;;
71108;SDS011;59614;51.012;-1.648;2023-03-01T11:49:54;9.52;;;4.53;;
71108;SDS011;59614;51.012;-1.648;2023-03-01T11:55:21;4.18;;;2.10;;
71108;SDS011;59614;51.012;-1.648;2023-03-01T12:32:15;9.60;;;4.68;;
71108;SDS011;59614;51.012;-1.648;2023-03-01T12:45:12;5.75;;;2.60;;
71108;SDS011;59614;51.012;-1.648;2023-03-01T12:50:57;7.10;;;2.50;;
71108;SDS011;59614;51.012;-1.648;2023-03-01T12:53:47;7.22;;;2.50;;
71108;SDS011;59614;51.012;-1.648;2023-03-01T12:56:18;4.95;;;2.20;;
71108;SDS011;59614;51.012;-1.648;2023-03-01T13:12:02;5.07;;;2.33;;
71108;SDS011;59614;51.012;-1.648;2023-03-01T13:14:36;3.42;;;2.15;;
71108;SDS011;59614;51.012;-1.648;2023-03-01T13:17:20;4.50;;;1.90;;
71108;SDS011;59614;51.012;-1.648;2023-03-01T13:19:58;3.77;;;1.87;;
71108;SDS011;59614;51.012;-1.648;2023-03-01T13:22:25;4.72;;;1.90;;
71108;SDS011;59614;51.012;-1.648;2023-03-01T13:25:01;4.97;;;2.03;;
71108;SDS011;59614;51.012;-1.648;2023-03-01T13:27:36;3.65;;;2.25;;
71108;SDS011;59614;51.012;-1.648;2023-03-01T13:30:01;9.32;;;2.35;;
71108;SDS011;59614;51.012;-1.648;2023-03-01T13:32:34;5.97;;;2.63;;
71108;SDS011;59614;51.012;-1.648;2023-03-01T13:37:39;3.85;;;2.10;;
71108;SDS011;59614;51.012;-1.648;2023-03-01T13:42:45;3.78;;;2.20;;
71108;SDS011;59614;51.012;-1.648;2023-03-01T13:45:19;6.43;;;2.55;;
71108;SDS011;59614;51.012;-1.648;2023-03-01T13:48:11;4.03;;;2.25;;
71108;SDS011;59614;51.012;-1.648;2023-03-01T13:50:48;3.50;;;1.98;;
71108;SDS011;59614;51.012;-1.648;2023-03-01T13:53:18;5.22;;;2.03;;
71108;SDS011;59614;51.012;-1.648;2023-03-01T13:55:51;3.30;;;2.20;;
71108;SDS011;59614;51.012;-1.648;2023-03-01T13:58:27;4.20;;;1.85;;
71108;SDS011;59614;51.012;-1.648;2023-03-01T14:01:03;3.65;;;1.83;;
71108;SDS011;59614;51.012;-1.648;2023-03-01T14:03:31;4.05;;;2.00;;
71108;SDS011;59614;51.012;-1.648;2023-03-01T14:06:03;7.40;;;2.70;;
71108;SDS011;59614;51.012;-1.648;2023-03-01T14:08:32;4.55;;;2.22;;
71108;SDS011;59614;51.012;-1.648;2023-03-01T14:11:02;5.07;;;2.33;;
71108;SDS011;59614;51.012;-1.648;2023-03-01T14:21:41;4.07;;;2.13;;
71108;SDS011;59614;51.012;-1.648;2023-03-01T14:24:14;2.83;;;1.88;;
71108;SDS011;59614;51.012;-1.648;2023-03-01T14:26:43;4.22;;;2.08;;
71108;SDS011;59614;51.012;-1.648;2023-03-01T14:29:55;4.90;;;2.13;;
71108;SDS011;59614;51.012;-1.648;2023-03-01T14:32:18;3.30;;;2.00;;
71108;SDS011;59614;51.012;-1.648;2023-03-01T14:34:47;6.00;;;2.30;;
71108;SDS011;59614;51.012;-1.648;2023-03-01T14:39:54;6.47;;;2.78;;
71108;SDS011;59614;51.012;-1.648;2023-03-01T14:42:22;6.78;;;3.38;;
71108;SDS011;59614;51.012;-1.648;2023-03-01T14:44:51;7.88;;;3.13;;
71108;SDS011;59614;51.012;-1.648;2023-03-01T14:49:51;9.15;;;3.92;;
71108;SDS011;59614;51.012;-1.648;2023-03-01T14:52:23;6.72;;;2.92;;
71108;SDS011;59614;51.012;-1.648;2023-03-01T14:54:56;7.47;;;2.38;;
71108;SDS011;59614;51.012;-1.648;2023-03-01T14:57:23;10.77;;;3.78;;
71108;SDS011;59614;51.012;-1.648;2023-03-01T14:59:54;4.35;;;2.60;;
71108;SDS011;59614;51.012;-1.648;2023-03-01T15:02:23;5.07;;;3.28;;
71108;SDS011;59614;51.012;-1.648;2023-03-01T15:07:16;5.97;;;2.20;;
71108;SDS011;59614;51.012;-1.648;2023-03-01T15:09:43;11.27;;;6.00;;
71108;SDS011;59614;51.012;-1.648;2023-03-01T15:14:52;6.32;;;3.30;;
71108;SDS011;59614;51.012;-1.648;2023-03-01T15:19:59;5.20;;;2.20;;
71108;SDS011;59614;51.012;-1.648;2023-03-01T15:22:26;5.00;;;2.33;;
71108;SDS011;59614;51.012;-1.648;2023-03-01T15:24:52;4.63;;;2.60;;
71108;SDS011;59614;51.012;-1.648;2023-03-01T15:27:20;4.43;;;2.70;;
71108;SDS011;59614;51.012;-1.648;2023-03-01T15:30:22;4.63;;;2.65;;
71108;SDS011;59614;51.012;-1.648;2023-03-01T15:35:52;8.02;;;3.97;;
71108;SDS011;59614;51.012;-1.648;2023-03-01T15:40:57;4.07;;;2.65;;
71108;SDS011;59614;51.012;-1.648;2023-03-01T15:43:41;4.05;;;2.40;;
71108;SDS011;59614;51.012;-1.648;2023-03-01T15:46:16;6.55;;;2.30;;
71108;SDS011;59614;51.012;-1.648;2023-03-01T15:48:44;5.05;;;2.88;;
71108;SDS011;59614;51.012;-1.648;2023-03-01T15:51:11;4.85;;;2.70;;
71108;SDS011;59614;51.012;-1.648;2023-03-01T15:53:39;4.65;;;2.85;;
71108;SDS011;59614;51.012;-1.648;2023-03-01T15:56:05;4.80;;;2.42;;
71108;SDS011;59614;51.012;-1.648;2023-03-01T15:58:32;6.10;;;4.00;;
71108;SDS011;59614;51.012;-1.648;2023-03-01T16:00:58;4.38;;;2.50;;
71108;SDS011;59614;51.012;-1.648;2023-03-01T16:03:24;6.20;;;3.22;;
71108;SDS011;59614;51.012;-1.648;2023-03-01T16:05:50;5.05;;;3.35;;
71108;SDS011;59614;51.012;-1.648;2023-03-01T16:08:16;7.25;;;3.42;;
71108;SDS011;59614;51.012;-1.648;2023-03-01T16:10:42;6.68;;;2.92;;
71108;SDS011;59614;51.012;-1.648;2023-03-01T16:13:13;5.78;;;3.10;;
71108;SDS011;59614;51.012;-1.648;2023-03-01T16:15:39;4.50;;;2.63;;
71108;SDS011;59614;51.012;-1.648;2023-03-01T16:18:05;4.38;;;2.50;;
71108;SDS011;59614;51.012;-1.648;2023-03-01T16:20:33;3.53;;;2.08;;
71108;SDS011;59614;51.012;-1.648;2023-03-01T16:22:58;5.90;;;2.20;;
71108;SDS011;59614;51.012;-1.648;2023-03-01T16:25:30;3.65;;;2.17;;
71108;SDS011;59614;51.012;-1.648;2023-03-01T16:27:57;4.10;;;2.47;;
71108;SDS011;59614;51.012;-1.648;2023-03-01T16:30:25;3.08;;;2.30;;
71108;SDS011;59614;51.012;-1.648;2023-03-01T16:32:50;5.40;;;2.70;;
71108;SDS011;59614;51.012;-1.648;2023-03-01T16:35:17;8.70;;;3.03;;
71108;SDS011;59614;51.012;-1.648;2023-03-01T16:40:16;4.22;;;2.50;;
71108;SDS011;59614;51.012;-1.648;2023-03-01T16:42:49;3.47;;;2.15;;
71108;SDS011;59614;51.012;-1.648;2023-03-01T16:45:15;5.80;;;2.55;;
71108;SDS011;59614;51.012;-1.648;2023-03-01T16:47:41;3.47;;;2.00;;
71108;SDS011;59614;51.012;-1.648;2023-03-01T16:50:07;3.40;;;2.40;;
71108;SDS011;59614;51.012;-1.648;2023-03-01T16:52:33;3.83;;;2.13;;
71108;SDS011;59614;51.012;-1.648;2023-03-01T16:54:59;3.35;;;2.00;;
71108;SDS011;59614;51.012;-1.648;2023-03-01T16:57:24;6.05;;;2.85;;
71108;SDS011;59614;51.012;-1.648;2023-03-01T16:59:53;11.57;;;6.35;;
71108;SDS011;59614;51.012;-1.648;2023-03-01T17:02:19;30.00;;;13.77;;
71108;SDS011;59614;51.012;-1.648;2023-03-01T17:04:45;19.70;;;9.43;;
71108;SDS011;59614;51.012;-1.648;2023-03-01T17:07:16;39.35;;;16.80;;
71108;SDS011;59614;51.012;-1.648;2023-03-01T17:09:41;15.38;;;6.47;;